sensor_id;sensor_type;location;lat;lon;timestamp;pressure;altitude;pressure_sealevel;temperature;humidity
54389;BME280;40975;50.390;8.640;2023-09-30T00:02:16;99855.84;;;14.49;100.00
54389;BME280;40975;50.390;8.640;2023-09-30T00:04:41;99861.53;;;14.54;100.00
54389;BME280;40975;50.390;8.640;2023-09-30T00:07:06;99862.78;;;14.42;100.00
54389;BME280;40975;50.390;8.640;2023-09-30T00:09:32;99866.13;;;14.44;100.00
54389;BME280;40975;50.390;8.640;2023-09-30T00:11:57;99868.88;;;14.34;100.00
54389;BME280;40975;50.390;8.640;2023-09-30T00:14:23;99883.06;;;14.35;100.00
54389;BME280;40975;50.390;8.640;2023-09-30T00:16:48;99879.03;;;14.30;100.00
54389;BME280;40975;50.390;8.640;2023-09-30T00:19:14;99881.00;;;14.28;100.00
54389;BME280;40975;50.390;8.640;2023-09-30T00:21:39;99883.84;;;14.27;100.00
54389;BME280;40975;50.390;8.640;2023-09-30T00:24:05;99886.50;;;14.27;100.00
54389;BME280;40975;50.390;8.640;2023-09-30T00:26:30;99887.03;;;14.30;100.00
54389;BME280;40975;50.390;8.640;2023-09-30T00:28:56;99892.97;;;14.24;100.00
54389;BME280;40975;50.390;8.640;2023-09-30T00:31:21;99883.19;;;14.15;100.00
54389;BME280;40975;50.390;8.640;2023-09-30T00:33:47;99888.00;;;14.11;100.00
54389;BME280;40975;50.390;8.640;2023-09-30T00:36:13;99890.84;;;14.10;100.00
54389;BME280;40975;50.390;8.640;2023-09-30T00:38:38;99896.41;;;14.17;100.00
54389;BME280;40975;50.390;8.640;2023-09-30T00:41:05;99901.81;;;14.07;100.00
54389;BME280;40975;50.390;8.640;2023-09-30T00:43:31;99895.94;;;14.03;100.00
54389;BME280;40975;50.390;8.640;2023-09-30T00:48:54;99903.19;;;14.11;100.00
54389;BME280;40975;50.390;8.640;2023-09-30T00:51:21;99900.19;;;13.96;100.00
54389;BME280;40975;50.390;8.640;2023-09-30T00:53:46;99901.72;;;13.98;100.00
54389;BME280;40975;50.390;8.640;2023-09-30T00:56:12;99908.19;;;13.96;100.00
54389;BME280;40975;50.390;8.640;2023-09-30T00:58:38;99904.75;;;13.86;100.00
54389;BME280;40975;50.390;8.640;2023-09-30T01:01:04;99899.00;;;13.80;100.00
54389;BME280;40975;50.390;8.640;2023-09-30T01:03:30;99900.44;;;13.75;100.00
54389;BME280;40975;50.390;8.640;2023-09-30T01:05:55;99909.09;;;13.87;100.00
54389;BME280;40975;50.390;8.640;2023-09-30T01:08:21;99913.75;;;13.84;100.00
54389;BME280;40975;50.390;8.640;2023-09-30T01:10:47;99922.13;;;13.90;100.00
54389;BME280;40975;50.390;8.640;2023-09-30T01:13:13;99919.59;;;13.88;100.00
54389;BME280;40975;50.390;8.640;2023-09-30T01:15:38;99934.22;;;13.84;100.00
54389;BME280;40975;50.390;8.640;2023-09-30T01:18:04;99948.25;;;13.86;100.00
54389;BME280;40975;50.390;8.640;2023-09-30T01:20:29;99936.31;;;13.90;100.00
54389;BME280;40975;50.390;8.640;2023-09-30T01:22:57;99931.00;;;13.80;100.00
54389;BME280;40975;50.390;8.640;2023-09-30T01:25:22;99935.38;;;13.81;100.00
54389;BME280;40975;50.390;8.640;2023-09-30T01:27:47;99934.66;;;13.79;100.00
54389;BME280;40975;50.390;8.640;2023-09-30T01:30:13;99938.56;;;13.85;100.00
54389;BME280;40975;50.390;8.640;2023-09-30T01:32:39;99935.44;;;13.72;100.00
54389;BME280;40975;50.390;8.640;2023-09-30T01:35:04;99926.47;;;13.63;100.00
54389;BME280;40975;50.390;8.640;2023-09-30T01:37:30;99929.03;;;13.55;100.00
54389;BME280;40975;50.390;8.640;2023-09-30T01:39:55;99934.38;;;13.55;100.00
54389;BME280;40975;50.390;8.640;2023-09-30T01:42:21;99948.41;;;13.47;100.00
54389;BME280;40975;50.390;8.640;2023-09-30T01:44:46;99940.03;;;13.42;100.00
54389;BME280;40975;50.390;8.640;2023-09-30T01:47:12;99942.25;;;13.36;100.00
54389;BME280;40975;50.390;8.640;2023-09-30T01:49:37;99937.19;;;13.33;100.00
54389;BME280;40975;50.390;8.640;2023-09-30T01:52:03;99932.88;;;13.32;100.00
54389;BME280;40975;50.390;8.640;2023-09-30T01:54:28;99935.09;;;13.27;100.00
54389;BME280;40975;50.390;8.640;2023-09-30T01:56:54;99937.63;;;13.29;100.00
54389;BME280;40975;50.390;8.640;2023-09-30T01:59:19;99937.50;;;13.30;100.00
54389;BME280;40975;50.390;8.640;2023-09-30T02:01:45;99940.44;;;13.27;100.00
54389;BME280;40975;50.390;8.640;2023-09-30T02:04:13;99938.59;;;13.28;100.00
54389;BME280;40975;50.390;8.640;2023-09-30T02:06:41;99941.69;;;13.23;100.00
54389;BME280;40975;50.390;8.640;2023-09-30T02:09:06;99939.88;;;13.24;100.00
54389;BME280;40975;50.390;8.640;2023-09-30T02:11:34;99940.31;;;13.19;100.00
54389;BME280;40975;50.390;8.640;2023-09-30T02:13:59;99944.78;;;13.18;100.00
54389;BME280;40975;50.390;8.640;2023-09-30T02:16:25;99949.19;;;13.10;100.00
54389;BME280;40975;50.390;8.640;2023-09-30T02:18:51;99953.69;;;12.99;100.00
54389;BME280;40975;50.390;8.640;2023-09-30T02:21:17;99967.00;;;12.99;100.00
54389;BME280;40975;50.390;8.640;2023-09-30T02:23:42;99965.59;;;12.95;100.00
54389;BME280;40975;50.390;8.640;2023-09-30T02:26:15;99964.22;;;12.91;100.00
54389;BME280;40975;50.390;8.640;2023-09-30T02:28:41;99973.88;;;12.92;100.00
54389;BME280;40975;50.390;8.640;2023-09-30T02:31:06;99958.59;;;12.84;100.00
54389;BME280;40975;50.390;8.640;2023-09-30T02:33:33;99956.78;;;12.75;100.00
54389;BME280;40975;50.390;8.640;2023-09-30T02:36:01;99953.25;;;12.74;100.00
54389;BME280;40975;50.390;8.640;2023-09-30T02:38:27;99952.56;;;12.72;100.00
54389;BME280;40975;50.390;8.640;2023-09-30T02:40:54;99951.88;;;12.70;100.00
54389;BME280;40975;50.390;8.640;2023-09-30T02:43:21;99946.00;;;12.67;100.00
54389;BME280;40975;50.390;8.640;2023-09-30T02:45:47;99952.13;;;12.67;100.00
54389;BME280;40975;50.390;8.640;2023-09-30T02:48:13;99947.38;;;12.61;100.00
54389;BME280;40975;50.390;8.640;2023-09-30T02:50:41;99955.22;;;12.63;100.00
54389;BME280;40975;50.390;8.640;2023-09-30T02:53:09;99953.69;;;12.70;100.00
54389;BME280;40975;50.390;8.640;2023-09-30T02:55:34;99966.44;;;12.66;100.00
54389;BME280;40975;50.390;8.640;2023-09-30T02:57:59;99963.38;;;12.61;100.00
54389;BME280;40975;50.390;8.640;2023-09-30T03:00:26;99960.97;;;12.58;100.00
54389;BME280;40975;50.390;8.640;2023-09-30T03:02:52;99963.34;;;12.51;100.00
54389;BME280;40975;50.390;8.640;2023-09-30T03:05:19;99963.50;;;12.50;100.00
54389;BME280;40975;50.390;8.640;2023-09-30T03:07:45;99957.88;;;12.43;100.00
54389;BME280;40975;50.390;8.640;2023-09-30T03:10:11;99963.59;;;12.38;100.00
54389;BME280;40975;50.390;8.640;2023-09-30T03:12:38;99958.84;;;12.32;100.00
54389;BME280;40975;50.390;8.640;2023-09-30T03:15:04;99966.84;;;12.32;100.00
54389;BME280;40975;50.390;8.640;2023-09-30T03:17:30;99968.22;;;12.26;100.00
54389;BME280;40975;50.390;8.640;2023-09-30T03:19:57;99968.63;;;12.22;100.00
54389;BME280;40975;50.390;8.640;2023-09-30T03:22:23;99966.19;;;12.09;100.00
54389;BME280;40975;50.390;8.640;2023-09-30T03:24:48;99966.03;;;12.01;100.00
54389;BME280;40975;50.390;8.640;2023-09-30T03:27:13;99972.84;;;11.93;100.00
54389;BME280;40975;50.390;8.640;2023-09-30T03:29:40;99963.31;;;11.91;100.00
54389;BME280;40975;50.390;8.640;2023-09-30T03:32:06;99977.31;;;11.93;100.00
54389;BME280;40975;50.390;8.640;2023-09-30T03:34:32;99978.81;;;11.86;100.00
54389;BME280;40975;50.390;8.640;2023-09-30T03:36:57;99986.69;;;11.87;100.00
54389;BME280;40975;50.390;8.640;2023-09-30T03:39:26;99989.03;;;11.80;100.00
54389;BME280;40975;50.390;8.640;2023-09-30T03:41:54;99993.78;;;11.77;100.00
54389;BME280;40975;50.390;8.640;2023-09-30T03:44:21;99989.56;;;11.74;100.00
54389;BME280;40975;50.390;8.640;2023-09-30T03:46:48;99992.22;;;11.74;100.00
54389;BME280;40975;50.390;8.640;2023-09-30T03:49:13;99987.44;;;11.68;100.00
54389;BME280;40975;50.390;8.640;2023-09-30T03:51:38;99989.13;;;11.69;100.00
54389;BME280;40975;50.390;8.640;2023-09-30T03:54:04;99995.94;;;11.62;100.00
54389;BME280;40975;50.390;8.640;2023-09-30T03:56:30;99996.91;;;11.61;100.00
54389;BME280;40975;50.390;8.640;2023-09-30T03:58:56;99997.75;;;11.61;100.00
54389;BME280;40975;50.390;8.640;2023-09-30T04:01:21;99995.47;;;11.57;100.00
54389;BME280;40975;50.390;8.640;2023-09-30T04:03:48;99995.22;;;11.60;100.00
54389;BME280;40975;50.390;8.640;2023-09-30T04:06:14;99990.63;;;11.62;100.00
54389;BME280;40975;50.390;8.640;2023-09-30T04:08:39;99983.44;;;11.53;100.00
54389;BME280;40975;50.390;8.640;2023-09-30T04:11:05;99987.06;;;11.51;100.00
54389;BME280;40975;50.390;8.640;2023-09-30T04:13:30;99995.31;;;11.48;100.00
54389;BME280;40975;50.390;8.640;2023-09-30T04:15:56;99996.75;;;11.53;100.00
54389;BME280;40975;50.390;8.640;2023-09-30T04:18:23;100002.56;;;11.46;100.00
54389;BME280;40975;50.390;8.640;2023-09-30T04:20:54;100000.88;;;11.45;100.00
54389;BME280;40975;50.390;8.640;2023-09-30T04:23:19;100000.63;;;11.48;100.00
54389;BME280;40975;50.390;8.640;2023-09-30T04:25:45;99995.22;;;11.39;100.00
54389;BME280;40975;50.390;8.640;2023-09-30T04:28:14;99996.22;;;11.38;100.00
54389;BME280;40975;50.390;8.640;2023-09-30T04:30:41;100004.44;;;11.34;100.00
54389;BME280;40975;50.390;8.640;2023-09-30T04:33:06;100024.16;;;11.32;100.00
54389;BME280;40975;50.390;8.640;2023-09-30T04:35:32;100034.47;;;11.25;100.00
54389;BME280;40975;50.390;8.640;2023-09-30T04:37:57;100033.59;;;11.25;100.00
54389;BME280;40975;50.390;8.640;2023-09-30T04:40:26;100026.41;;;11.15;100.00
54389;BME280;40975;50.390;8.640;2023-09-30T04:42:52;100024.72;;;11.14;100.00
54389;BME280;40975;50.390;8.640;2023-09-30T04:45:20;100029.06;;;11.15;100.00
54389;BME280;40975;50.390;8.640;2023-09-30T04:47:46;100029.59;;;11.09;100.00
54389;BME280;40975;50.390;8.640;2023-09-30T04:50:14;100027.75;;;11.10;100.00
54389;BME280;40975;50.390;8.640;2023-09-30T04:52:41;100017.66;;;11.03;100.00
54389;BME280;40975;50.390;8.640;2023-09-30T04:55:06;100010.44;;;10.94;100.00
54389;BME280;40975;50.390;8.640;2023-09-30T04:57:33;100007.31;;;10.89;100.00
54389;BME280;40975;50.390;8.640;2023-09-30T04:59:58;100000.69;;;10.83;100.00
54389;BME280;40975;50.390;8.640;2023-09-30T05:02:24;100000.63;;;10.73;100.00
54389;BME280;40975;50.390;8.640;2023-09-30T05:04:50;99989.81;;;10.65;100.00
54389;BME280;40975;50.390;8.640;2023-09-30T05:07:15;99998.88;;;10.63;100.00
54389;BME280;40975;50.390;8.640;2023-09-30T05:09:41;99998.00;;;10.62;100.00
54389;BME280;40975;50.390;8.640;2023-09-30T05:12:07;99994.19;;;10.55;100.00
54389;BME280;40975;50.390;8.640;2023-09-30T05:14:33;100003.94;;;10.54;100.00
54389;BME280;40975;50.390;8.640;2023-09-30T05:16:58;100014.09;;;10.49;100.00
54389;BME280;40975;50.390;8.640;2023-09-30T05:19:24;100013.75;;;10.42;100.00
54389;BME280;40975;50.390;8.640;2023-09-30T05:21:49;100013.16;;;10.39;100.00
54389;BME280;40975;50.390;8.640;2023-09-30T05:24:15;100022.91;;;10.38;100.00
54389;BME280;40975;50.390;8.640;2023-09-30T05:26:44;100022.41;;;10.33;100.00
54389;BME280;40975;50.390;8.640;2023-09-30T05:29:09;100028.81;;;10.31;100.00
54389;BME280;40975;50.390;8.640;2023-09-30T05:31:35;100024.13;;;10.23;100.00
54389;BME280;40975;50.390;8.640;2023-09-30T05:34:00;100037.13;;;10.26;100.00
54389;BME280;40975;50.390;8.640;2023-09-30T05:36:28;100035.69;;;10.22;100.00
54389;BME280;40975;50.390;8.640;2023-09-30T05:38:54;100041.22;;;10.19;100.00
54389;BME280;40975;50.390;8.640;2023-09-30T05:41:20;100040.16;;;10.21;100.00
54389;BME280;40975;50.390;8.640;2023-09-30T05:43:46;100044.25;;;10.14;100.00
54389;BME280;40975;50.390;8.640;2023-09-30T05:46:12;100049.44;;;10.16;100.00
54389;BME280;40975;50.390;8.640;2023-09-30T05:48:38;100057.63;;;10.13;100.00
54389;BME280;40975;50.390;8.640;2023-09-30T05:51:04;100044.25;;;10.14;100.00
54389;BME280;40975;50.390;8.640;2023-09-30T05:53:31;100049.81;;;10.22;100.00
54389;BME280;40975;50.390;8.640;2023-09-30T05:55:58;100038.84;;;10.16;100.00
54389;BME280;40975;50.390;8.640;2023-09-30T05:58:25;100044.25;;;10.25;100.00
54389;BME280;40975;50.390;8.640;2023-09-30T06:00:52;100033.63;;;10.25;100.00
54389;BME280;40975;50.390;8.640;2023-09-30T06:03:18;100040.63;;;10.26;100.00
54389;BME280;40975;50.390;8.640;2023-09-30T06:05:43;100043.78;;;10.32;100.00
54389;BME280;40975;50.390;8.640;2023-09-30T06:08:09;100050.88;;;10.31;100.00
54389;BME280;40975;50.390;8.640;2023-09-30T06:10:42;100052.44;;;10.34;100.00
54389;BME280;40975;50.390;8.640;2023-09-30T06:13:10;100056.56;;;10.38;100.00
54389;BME280;40975;50.390;8.640;2023-09-30T06:15:40;100066.59;;;10.46;100.00
54389;BME280;40975;50.390;8.640;2023-09-30T06:18:07;100067.41;;;10.57;100.00
54389;BME280;40975;50.390;8.640;2023-09-30T06:20:33;100072.56;;;10.70;100.00
54389;BME280;40975;50.390;8.640;2023-09-30T06:22:59;100073.25;;;10.84;100.00
54389;BME280;40975;50.390;8.640;2023-09-30T06:25:26;100078.41;;;10.97;100.00
54389;BME280;40975;50.390;8.640;2023-09-30T06:27:53;100081.53;;;11.02;100.00
54389;BME280;40975;50.390;8.640;2023-09-30T06:30:20;100086.72;;;11.03;100.00
54389;BME280;40975;50.390;8.640;2023-09-30T06:32:46;100078.59;;;11.05;100.00
54389;BME280;40975;50.390;8.640;2023-09-30T06:35:12;100074.59;;;11.11;100.00
54389;BME280;40975;50.390;8.640;2023-09-30T06:37:41;100077.59;;;11.17;100.00
54389;BME280;40975;50.390;8.640;2023-09-30T06:40:08;100086.41;;;11.18;100.00
54389;BME280;40975;50.390;8.640;2023-09-30T06:42:34;100083.41;;;11.23;100.00
54389;BME280;40975;50.390;8.640;2023-09-30T06:45:01;100088.34;;;11.27;100.00
54389;BME280;40975;50.390;8.640;2023-09-30T06:47:26;100090.31;;;11.35;100.00
54389;BME280;40975;50.390;8.640;2023-09-30T06:49:52;100089.50;;;11.34;100.00
54389;BME280;40975;50.390;8.640;2023-09-30T06:52:18;100091.53;;;11.42;100.00
54389;BME280;40975;50.390;8.640;2023-09-30T06:54:45;100101.88;;;11.45;100.00
54389;BME280;40975;50.390;8.640;2023-09-30T06:57:10;100093.19;;;11.43;100.00
54389;BME280;40975;50.390;8.640;2023-09-30T06:59:35;100105.78;;;11.62;100.00
54389;BME280;40975;50.390;8.640;2023-09-30T07:02:01;100098.84;;;11.71;100.00
54389;BME280;40975;50.390;8.640;2023-09-30T07:04:26;100093.25;;;11.74;100.00
54389;BME280;40975;50.390;8.640;2023-09-30T07:06:55;100098.13;;;11.90;100.00
54389;BME280;40975;50.390;8.640;2023-09-30T07:09:20;100095.56;;;12.00;100.00
54389;BME280;40975;50.390;8.640;2023-09-30T07:11:46;100096.06;;;12.15;100.00
54389;BME280;40975;50.390;8.640;2023-09-30T07:14:11;100095.97;;;12.26;100.00
54389;BME280;40975;50.390;8.640;2023-09-30T07:16:36;100100.78;;;12.42;100.00
54389;BME280;40975;50.390;8.640;2023-09-30T07:19:02;100111.31;;;12.54;100.00
54389;BME280;40975;50.390;8.640;2023-09-30T07:21:28;100107.00;;;12.63;100.00
54389;BME280;40975;50.390;8.640;2023-09-30T07:23:53;100110.69;;;12.71;100.00
54389;BME280;40975;50.390;8.640;2023-09-30T07:26:23;100115.88;;;12.83;100.00
54389;BME280;40975;50.390;8.640;2023-09-30T07:28:49;100118.31;;;12.96;100.00
54389;BME280;40975;50.390;8.640;2023-09-30T07:31:14;100113.97;;;13.04;100.00
54389;BME280;40975;50.390;8.640;2023-09-30T07:33:39;100116.22;;;13.09;100.00
54389;BME280;40975;50.390;8.640;2023-09-30T07:36:05;100100.94;;;13.11;100.00
54389;BME280;40975;50.390;8.640;2023-09-30T07:38:30;100114.53;;;13.28;100.00
54389;BME280;40975;50.390;8.640;2023-09-30T07:40:55;100115.69;;;13.35;100.00
54389;BME280;40975;50.390;8.640;2023-09-30T07:43:21;100123.97;;;13.51;100.00
54389;BME280;40975;50.390;8.640;2023-09-30T07:45:47;100123.72;;;13.55;100.00
54389;BME280;40975;50.390;8.640;2023-09-30T07:48:13;100119.50;;;13.72;100.00
54389;BME280;40975;50.390;8.640;2023-09-30T07:50:39;100122.13;;;13.81;100.00
54389;BME280;40975;50.390;8.640;2023-09-30T07:53:04;100117.34;;;13.95;100.00
54389;BME280;40975;50.390;8.640;2023-09-30T07:55:30;100121.91;;;14.22;100.00
54389;BME280;40975;50.390;8.640;2023-09-30T07:57:56;100131.66;;;14.41;100.00
54389;BME280;40975;50.390;8.640;2023-09-30T08:00:22;100126.06;;;14.72;100.00
54389;BME280;40975;50.390;8.640;2023-09-30T08:02:48;100127.72;;;15.01;100.00
54389;BME280;40975;50.390;8.640;2023-09-30T08:05:15;100114.75;;;15.06;100.00
54389;BME280;40975;50.390;8.640;2023-09-30T08:07:40;100123.91;;;15.40;100.00
54389;BME280;40975;50.390;8.640;2023-09-30T08:10:07;100123.88;;;15.58;100.00
54389;BME280;40975;50.390;8.640;2023-09-30T08:12:37;100128.97;;;16.06;93.10
54389;BME280;40975;50.390;8.640;2023-09-30T08:15:03;100136.63;;;16.27;93.32
54389;BME280;40975;50.390;8.640;2023-09-30T08:17:28;100135.41;;;16.21;90.45
54389;BME280;40975;50.390;8.640;2023-09-30T08:19:53;100131.03;;;16.20;88.78
54389;BME280;40975;50.390;8.640;2023-09-30T08:22:19;100124.16;;;15.73;84.23
54389;BME280;40975;50.390;8.640;2023-09-30T08:24:44;100136.78;;;15.81;87.93
54389;BME280;40975;50.390;8.640;2023-09-30T08:27:09;100134.09;;;15.99;93.13
54389;BME280;40975;50.390;8.640;2023-09-30T08:29:35;100133.69;;;16.46;87.79
54389;BME280;40975;50.390;8.640;2023-09-30T08:32:04;100137.72;;;16.85;84.44
54389;BME280;40975;50.390;8.640;2023-09-30T08:34:29;100133.66;;;17.90;79.81
54389;BME280;40975;50.390;8.640;2023-09-30T08:36:55;100125.84;;;19.16;70.10
54389;BME280;40975;50.390;8.640;2023-09-30T08:39:20;100148.44;;;20.60;68.25
54389;BME280;40975;50.390;8.640;2023-09-30T08:41:46;100145.78;;;22.33;63.18
54389;BME280;40975;50.390;8.640;2023-09-30T08:44:11;100140.81;;;23.34;57.31
54389;BME280;40975;50.390;8.640;2023-09-30T08:46:38;100148.03;;;24.68;53.83
54389;BME280;40975;50.390;8.640;2023-09-30T08:49:05;100153.84;;;25.17;51.53
54389;BME280;40975;50.390;8.640;2023-09-30T08:51:34;100148.75;;;25.91;49.05
54389;BME280;40975;50.390;8.640;2023-09-30T08:54:01;100152.22;;;25.48;49.54
54389;BME280;40975;50.390;8.640;2023-09-30T08:56:30;100153.13;;;25.92;49.00
54389;BME280;40975;50.390;8.640;2023-09-30T08:59:00;100155.47;;;26.14;48.27
54389;BME280;40975;50.390;8.640;2023-09-30T09:01:29;100209.88;;;26.95;45.19
54389;BME280;40975;50.390;8.640;2023-09-30T09:03:56;100209.91;;;27.44;44.68
54389;BME280;40975;50.390;8.640;2023-09-30T09:06:22;100199.13;;;26.63;44.98
54389;BME280;40975;50.390;8.640;2023-09-30T09:08:48;100211.38;;;27.71;43.14
54389;BME280;40975;50.390;8.640;2023-09-30T09:11:14;100213.88;;;27.72;43.55
54389;BME280;40975;50.390;8.640;2023-09-30T09:14:06;100212.22;;;26.92;44.47
54389;BME280;40975;50.390;8.640;2023-09-30T09:16:32;100219.97;;;27.56;45.17
54389;BME280;40975;50.390;8.640;2023-09-30T09:18:57;100230.59;;;26.96;43.86
54389;BME280;40975;50.390;8.640;2023-09-30T09:21:23;100228.34;;;27.42;44.79
54389;BME280;40975;50.390;8.640;2023-09-30T09:23:50;100218.09;;;27.56;44.58
54389;BME280;40975;50.390;8.640;2023-09-30T09:26:25;100219.84;;;27.51;43.86
54389;BME280;40975;50.390;8.640;2023-09-30T09:28:56;100222.72;;;28.10;42.91
54389;BME280;40975;50.390;8.640;2023-09-30T09:31:22;100231.28;;;28.49;42.41
54389;BME280;40975;50.390;8.640;2023-09-30T09:33:49;100229.38;;;27.11;44.13
54389;BME280;40975;50.390;8.640;2023-09-30T09:36:15;100217.38;;;24.50;49.34
54389;BME280;40975;50.390;8.640;2023-09-30T09:38:59;100206.44;;;22.46;55.46
54389;BME280;40975;50.390;8.640;2023-09-30T09:41:25;100206.09;;;21.04;59.84
54389;BME280;40975;50.390;8.640;2023-09-30T09:43:50;100205.06;;;23.05;55.51
54389;BME280;40975;50.390;8.640;2023-09-30T09:46:16;100209.84;;;23.65;51.87
54389;BME280;40975;50.390;8.640;2023-09-30T09:48:45;100198.34;;;25.16;50.93
54389;BME280;40975;50.390;8.640;2023-09-30T09:51:11;100200.78;;;22.76;54.99
54389;BME280;40975;50.390;8.640;2023-09-30T09:53:39;100202.53;;;24.46;50.58
54389;BME280;40975;50.390;8.640;2023-09-30T09:56:08;100188.91;;;23.25;51.30
54389;BME280;40975;50.390;8.640;2023-09-30T09:58:35;100178.50;;;21.60;59.87
54389;BME280;40975;50.390;8.640;2023-09-30T10:01:05;100176.28;;;23.59;52.47
54389;BME280;40975;50.390;8.640;2023-09-30T10:03:31;100183.75;;;25.56;49.75
54389;BME280;40975;50.390;8.640;2023-09-30T10:05:58;100168.88;;;24.74;50.19
54389;BME280;40975;50.390;8.640;2023-09-30T10:08:30;100164.75;;;22.69;55.89
54389;BME280;40975;50.390;8.640;2023-09-30T10:10:57;100153.25;;;21.74;57.42
54389;BME280;40975;50.390;8.640;2023-09-30T10:13:50;100142.69;;;20.48;62.71
54389;BME280;40975;50.390;8.640;2023-09-30T10:21:34;100135.75;;;22.62;55.93
54389;BME280;40975;50.390;8.640;2023-09-30T10:27:27;100142.69;;;20.78;61.90
54389;BME280;40975;50.390;8.640;2023-09-30T10:35:16;100163.59;;;24.07;52.66
54389;BME280;40975;50.390;8.640;2023-09-30T10:37:43;100156.78;;;22.60;56.01
54389;BME280;40975;50.390;8.640;2023-09-30T10:40:08;100156.41;;;21.78;60.87
54389;BME280;40975;50.390;8.640;2023-09-30T10:42:47;100159.25;;;22.27;59.50
54389;BME280;40975;50.390;8.640;2023-09-30T10:53:44;100152.50;;;24.35;50.55
54389;BME280;40975;50.390;8.640;2023-09-30T10:56:10;100150.53;;;24.56;48.76
54389;BME280;40975;50.390;8.640;2023-09-30T11:01:04;100147.31;;;24.07;51.21
54389;BME280;40975;50.390;8.640;2023-09-30T11:03:29;100152.91;;;24.39;53.69
54389;BME280;40975;50.390;8.640;2023-09-30T11:05:55;100151.25;;;23.84;51.83
54389;BME280;40975;50.390;8.640;2023-09-30T11:08:21;100153.75;;;23.59;49.86
54389;BME280;40975;50.390;8.640;2023-09-30T11:10:50;100157.09;;;23.88;50.01
54389;BME280;40975;50.390;8.640;2023-09-30T11:13:20;100158.81;;;23.96;48.45
54389;BME280;40975;50.390;8.640;2023-09-30T11:15:46;100164.59;;;23.66;50.88
54389;BME280;40975;50.390;8.640;2023-09-30T11:18:18;100164.63;;;24.06;49.80
54389;BME280;40975;50.390;8.640;2023-09-30T11:20:44;100158.75;;;23.49;50.06
54389;BME280;40975;50.390;8.640;2023-09-30T11:23:13;100146.78;;;23.16;50.41
54389;BME280;40975;50.390;8.640;2023-09-30T11:25:40;100144.13;;;23.23;52.83
54389;BME280;40975;50.390;8.640;2023-09-30T11:28:16;100131.22;;;23.38;51.13
54389;BME280;40975;50.390;8.640;2023-09-30T11:30:59;100135.19;;;23.56;51.49
54389;BME280;40975;50.390;8.640;2023-09-30T11:33:25;100123.16;;;23.99;53.06
54389;BME280;40975;50.390;8.640;2023-09-30T11:36:04;100134.78;;;23.39;49.25
54389;BME280;40975;50.390;8.640;2023-09-30T11:38:31;100142.50;;;23.89;52.39
54389;BME280;40975;50.390;8.640;2023-09-30T11:41:01;100136.88;;;23.77;47.81
54389;BME280;40975;50.390;8.640;2023-09-30T11:43:29;100146.88;;;23.76;47.30
54389;BME280;40975;50.390;8.640;2023-09-30T11:46:08;100145.44;;;24.01;47.26
54389;BME280;40975;50.390;8.640;2023-09-30T11:48:56;100141.25;;;23.58;47.77
54389;BME280;40975;50.390;8.640;2023-09-30T11:51:22;100136.25;;;23.41;50.59
54389;BME280;40975;50.390;8.640;2023-09-30T11:53:50;100134.97;;;24.25;53.85
54389;BME280;40975;50.390;8.640;2023-09-30T11:59:29;100120.22;;;23.60;48.16
54389;BME280;40975;50.390;8.640;2023-09-30T12:01:55;100128.94;;;23.82;45.54
54389;BME280;40975;50.390;8.640;2023-09-30T12:04:21;100127.50;;;23.80;47.31
54389;BME280;40975;50.390;8.640;2023-09-30T12:06:46;100126.47;;;23.87;46.81
54389;BME280;40975;50.390;8.640;2023-09-30T12:09:14;100115.44;;;23.75;42.96
54389;BME280;40975;50.390;8.640;2023-09-30T12:11:41;100115.44;;;23.75;42.61
54389;BME280;40975;50.390;8.640;2023-09-30T12:14:10;100113.94;;;23.86;45.50
54389;BME280;40975;50.390;8.640;2023-09-30T12:16:36;100107.91;;;23.91;43.76
54389;BME280;40975;50.390;8.640;2023-09-30T12:19:01;100114.16;;;23.78;40.29
54389;BME280;40975;50.390;8.640;2023-09-30T12:21:26;100107.72;;;23.66;40.04
54389;BME280;40975;50.390;8.640;2023-09-30T12:23:52;100105.84;;;23.46;39.79
54389;BME280;40975;50.390;8.640;2023-09-30T12:26:17;100110.22;;;23.47;38.51
54389;BME280;40975;50.390;8.640;2023-09-30T12:28:45;100099.94;;;23.09;39.54
54389;BME280;40975;50.390;8.640;2023-09-30T12:31:10;100103.97;;;22.71;39.99
54389;BME280;40975;50.390;8.640;2023-09-30T12:33:36;100104.63;;;22.80;40.19
54389;BME280;40975;50.390;8.640;2023-09-30T12:36:01;100109.06;;;23.01;43.40
54389;BME280;40975;50.390;8.640;2023-09-30T12:38:27;100106.56;;;23.00;41.51
54389;BME280;40975;50.390;8.640;2023-09-30T12:40:54;100106.88;;;22.70;40.36
54389;BME280;40975;50.390;8.640;2023-09-30T12:43:21;100102.50;;;22.69;40.12
54389;BME280;40975;50.390;8.640;2023-09-30T12:45:46;100107.97;;;22.89;38.91
54389;BME280;40975;50.390;8.640;2023-09-30T12:48:13;100105.66;;;22.72;38.49
54389;BME280;40975;50.390;8.640;2023-09-30T12:50:38;100104.25;;;22.90;38.59
54389;BME280;40975;50.390;8.640;2023-09-30T12:53:03;100109.28;;;23.00;37.35
54389;BME280;40975;50.390;8.640;2023-09-30T12:55:29;100108.22;;;23.07;40.19
54389;BME280;40975;50.390;8.640;2023-09-30T12:57:54;100103.84;;;22.93;44.58
54389;BME280;40975;50.390;8.640;2023-09-30T13:00:20;100115.69;;;22.92;43.10
54389;BME280;40975;50.390;8.640;2023-09-30T13:02:47;100119.22;;;22.92;40.10
54389;BME280;40975;50.390;8.640;2023-09-30T13:05:13;100106.88;;;22.70;37.99
54389;BME280;40975;50.390;8.640;2023-09-30T13:07:39;100111.47;;;22.76;39.96
54389;BME280;40975;50.390;8.640;2023-09-30T13:10:04;100108.50;;;22.57;42.06
54389;BME280;40975;50.390;8.640;2023-09-30T13:12:31;100097.19;;;22.95;39.83
54389;BME280;40975;50.390;8.640;2023-09-30T13:14:58;100103.41;;;22.96;40.05
54389;BME280;40975;50.390;8.640;2023-09-30T13:17:24;100097.34;;;22.80;39.37